createdAt,value
2023-04-26T00:00:11.562Z,9.13
2023-04-26T00:05:16.235Z,10.75
2023-04-26T00:10:19.837Z,12.50
2023-04-26T00:15:24.855Z,12.20
2023-04-26T00:20:28.740Z,10.93
2023-04-26T00:25:32.775Z,9.23
2023-04-26T00:30:41.573Z,9.23
2023-04-26T00:35:46.406Z,9.85
2023-04-26T00:40:50.171Z,8.63
2023-04-26T00:45:55.315Z,9.68
2023-04-26T00:50:59.205Z,9.13
2023-04-26T00:56:05.432Z,8.55
2023-04-26T01:01:13.679Z,11.63
2023-04-26T01:06:18.431Z,11.23
2023-04-26T01:11:22.370Z,10.45
2023-04-26T01:16:29.463Z,6.30
2023-04-26T01:21:38.055Z,11.80
2023-04-26T01:26:45.960Z,11.07
2023-04-26T01:31:51.076Z,9.40
2023-04-26T01:36:54.344Z,11.93
2023-04-26T01:42:00.216Z,12.82
2023-04-26T01:47:04.603Z,16.65
2023-04-26T01:52:10.220Z,9.20
2023-04-26T01:57:17.222Z,7.97
2023-04-26T02:02:53.524Z,6.70
2023-04-26T02:07:57.442Z,7.40
2023-04-26T02:13:11.169Z,8.73
2023-04-26T02:18:18.001Z,10.60
2023-04-26T02:23:25.078Z,8.00
2023-04-26T02:28:30.516Z,9.07
2023-04-26T02:33:35.368Z,8.20
2023-04-26T02:38:40.068Z,9.13
2023-04-26T02:43:45.331Z,9.73
2023-04-26T02:48:49.105Z,9.48
2023-04-26T02:53:53.372Z,8.95
2023-04-26T02:58:59.128Z,9.52
2023-04-26T03:04:04.725Z,7.80
2023-04-26T03:09:10.967Z,7.47
2023-04-26T03:14:18.325Z,7.97
2023-04-26T03:19:22.686Z,8.23
2023-04-26T03:24:27.282Z,12.52
2023-04-26T03:29:34.088Z,10.63
2023-04-26T03:34:40.581Z,9.00
2023-04-26T03:39:44.128Z,7.13
2023-04-26T03:44:50.089Z,8.55
2023-04-26T03:49:55.354Z,8.45
2023-04-26T03:55:01.901Z,13.10
2023-04-26T04:00:13.732Z,10.02
2023-04-26T04:05:21.225Z,9.80
2023-04-26T04:10:24.991Z,8.48
2023-04-26T04:15:31.796Z,10.93
2023-04-26T04:20:35.658Z,18.65
2023-04-26T04:25:44.777Z,12.73
2023-04-26T04:30:51.848Z,39.30
2023-04-26T04:35:56.455Z,107.05
2023-04-26T04:41:00.767Z,166.25
2023-04-26T04:46:06.252Z,150.30
2023-04-26T04:51:10.518Z,170.60
2023-04-26T04:56:14.692Z,272.02
2023-04-26T05:01:20.031Z,160.90
2023-04-26T05:06:28.383Z,285.38
2023-04-26T05:11:32.266Z,150.55
2023-04-26T05:16:38.595Z,432.63
2023-04-26T05:21:42.385Z,376.25
2023-04-26T05:26:46.269Z,485.42
2023-04-26T05:31:59.653Z,220.55
2023-04-26T05:37:29.304Z,129.15
2023-04-26T05:42:32.989Z,316.45
2023-04-26T05:47:42.089Z,499.25
2023-04-26T05:52:50.087Z,231.50
2023-04-26T05:58:02.690Z,270.20
2023-04-26T06:08:47.442Z,126.00
2023-04-26T06:13:51.422Z,68.25
2023-04-26T06:18:56.029Z,88.93
2023-04-26T06:24:04.575Z,64.35
2023-04-26T06:29:08.241Z,38.88
2023-04-26T06:34:11.762Z,39.08
2023-04-26T06:39:18.007Z,19.52
2023-04-26T06:44:21.856Z,13.30
2023-04-26T06:49:26.925Z,16.25
2023-04-26T06:54:33.446Z,13.15
2023-04-26T06:59:41.927Z,16.08
2023-04-26T07:04:47.120Z,13.38
2023-04-26T07:09:52.001Z,10.50
2023-04-26T07:14:56.417Z,9.35
2023-04-26T07:20:00.860Z,8.13
2023-04-26T07:25:11.012Z,10.18
2023-04-26T07:30:15.207Z,9.85
2023-04-26T07:35:23.902Z,8.20
2023-04-26T07:40:29.340Z,9.55
2023-04-26T07:45:35.391Z,9.65
2023-04-26T07:50:41.435Z,7.90
2023-04-26T07:55:47.001Z,10.73
2023-04-26T08:00:50.983Z,8.60
2023-04-26T08:05:59.871Z,9.15
2023-04-26T08:11:10.852Z,9.63
2023-04-26T08:16:19.802Z,10.07
2023-04-26T08:21:24.925Z,7.57
2023-04-26T08:26:30.578Z,8.43
2023-04-26T08:31:35.649Z,9.15
2023-04-26T08:36:39.763Z,8.23
2023-04-26T08:41:47.320Z,10.27
2023-04-26T08:46:54.675Z,8.90
2023-04-26T08:51:58.723Z,7.82
2023-04-26T08:57:05.478Z,11.70
2023-04-26T09:02:10.349Z,7.90
2023-04-26T09:07:19.465Z,16.08
2023-04-26T09:12:26.461Z,11.13
2023-04-26T09:17:31.313Z,10.25
2023-04-26T09:22:39.092Z,8.15
2023-04-26T09:27:45.257Z,8.00
2023-04-26T09:32:53.929Z,8.65
2023-04-26T09:38:05.987Z,9.18
2023-04-26T09:43:21.069Z,8.10
2023-04-26T09:48:27.172Z,7.18
2023-04-26T09:53:40.986Z,7.68
2023-04-26T09:59:00.886Z,7.57
2023-04-26T10:04:04.986Z,6.35
2023-04-26T10:09:09.675Z,4.55
2023-04-26T10:14:14.529Z,7.47
2023-04-26T10:19:18.450Z,4.53
2023-04-26T10:24:23.286Z,8.48
2023-04-26T10:30:04.517Z,5.45
2023-04-26T10:35:16.251Z,6.57
2023-04-26T10:40:32.889Z,7.60
2023-04-26T10:45:54.396Z,6.88
2023-04-26T10:51:14.051Z,12.18
2023-04-26T10:56:53.069Z,5.43
2023-04-26T11:02:01.039Z,6.40
2023-04-26T11:07:05.774Z,6.93
2023-04-26T11:12:17.567Z,8.30
2023-04-26T11:17:32.051Z,6.60
2023-04-26T11:22:37.535Z,5.63
2023-04-26T11:27:45.181Z,4.18
2023-04-26T11:33:02.914Z,6.82
2023-04-26T11:38:11.719Z,7.40
2023-04-26T11:43:18.114Z,3.60
2023-04-26T11:48:31.461Z,5.47
2023-04-26T11:53:41.250Z,4.07
2023-04-26T11:58:48.706Z,4.35
2023-04-26T12:03:57.451Z,5.28
2023-04-26T12:09:09.108Z,3.60
2023-04-26T12:14:15.611Z,4.07
2023-04-26T12:19:28.293Z,4.63
2023-04-26T12:24:34.665Z,6.32
2023-04-26T12:29:38.305Z,7.50
2023-04-26T12:34:44.346Z,3.40
2023-04-26T12:39:48.249Z,6.50
2023-04-26T12:44:53.583Z,8.07
2023-04-26T12:50:00.741Z,6.50
2023-04-26T12:55:05.384Z,5.50
2023-04-26T13:00:13.163Z,5.90
2023-04-26T13:05:27.938Z,4.93
2023-04-26T13:10:33.075Z,7.40
2023-04-26T13:15:36.953Z,6.30
2023-04-26T13:20:42.453Z,5.13
2023-04-26T13:25:46.087Z,5.50
2023-04-26T13:30:51.032Z,5.60
2023-04-26T13:35:56.718Z,3.92
2023-04-26T13:41:00.766Z,7.70
2023-04-26T13:46:04.794Z,2.50
2023-04-26T13:51:10.093Z,4.43
2023-04-26T13:56:13.628Z,5.40
2023-04-26T14:01:17.521Z,3.70
2023-04-26T14:06:23.977Z,6.45
2023-04-26T14:11:27.834Z,4.38
2023-04-26T14:16:33.024Z,6.55
2023-04-26T14:21:38.532Z,3.45
2023-04-26T14:26:42.909Z,3.50
2023-04-26T14:31:46.710Z,4.50
2023-04-26T14:36:54.612Z,4.38
2023-04-26T14:41:58.233Z,4.28
2023-04-26T14:47:02.168Z,4.75
2023-04-26T14:52:08.542Z,3.25
2023-04-26T14:57:12.261Z,3.47
2023-04-26T15:02:17.679Z,5.10
2023-04-26T15:07:31.866Z,7.15
2023-04-26T15:12:37.829Z,4.35
2023-04-26T15:17:44.501Z,3.92
2023-04-26T15:22:49.582Z,5.78
2023-04-26T15:28:19.831Z,2.88
2023-04-26T15:33:23.687Z,4.32
2023-04-26T15:38:31.493Z,5.10
2023-04-26T15:43:36.364Z,3.83
2023-04-26T15:48:41.072Z,4.90
2023-04-26T15:53:50.050Z,3.30
2023-04-26T16:03:57.194Z,3.42
2023-04-26T16:09:17.171Z,3.92
2023-04-26T16:14:27.726Z,2.45
2023-04-26T16:19:32.888Z,5.15
2023-04-26T16:24:38.492Z,3.97
2023-04-26T16:29:47.172Z,5.88
2023-04-26T16:34:53.157Z,4.90
2023-04-26T16:39:58.253Z,4.30
2023-04-26T16:45:01.984Z,4.50
2023-04-26T16:50:06.455Z,3.05
2023-04-26T16:55:11.715Z,5.68
2023-04-26T17:00:17.138Z,4.22
2023-04-26T17:05:21.107Z,5.22
2023-04-26T17:10:27.508Z,3.90
2023-04-26T17:15:33.478Z,7.28
2023-04-26T17:20:38.659Z,6.13
2023-04-26T17:25:46.637Z,4.38
2023-04-26T17:30:50.954Z,4.97
2023-04-26T17:35:59.497Z,3.47
2023-04-26T17:46:08.581Z,4.40
2023-04-26T17:51:14.374Z,4.63
2023-04-26T17:56:19.404Z,4.88
2023-04-26T18:01:23.850Z,4.20
2023-04-26T18:06:28.270Z,5.60
2023-04-26T18:11:33.224Z,4.68
2023-04-26T18:16:42.293Z,4.65
2023-04-26T18:21:45.856Z,7.57
2023-04-26T18:26:51.515Z,8.02
2023-04-26T18:31:55.861Z,4.53
2023-04-26T18:36:59.667Z,4.68
2023-04-26T18:42:04.239Z,4.85
2023-04-26T18:47:07.634Z,4.15
2023-04-26T18:52:14.275Z,5.57
2023-04-26T18:57:25.869Z,4.80
2023-04-26T19:02:29.587Z,25.10
2023-04-26T19:07:41.641Z,25.90
2023-04-26T19:12:48.425Z,6.03
2023-04-26T19:17:52.891Z,4.80
2023-04-26T19:23:03.973Z,5.75
2023-04-26T19:28:45.348Z,6.78
2023-04-26T19:33:50.397Z,9.93
2023-04-26T19:38:54.710Z,6.50
2023-04-26T19:44:01.035Z,6.18
2023-04-26T19:49:04.829Z,7.03
2023-04-26T19:54:08.161Z,5.55
2023-04-26T19:59:15.068Z,7.93
2023-04-26T20:04:18.922Z,9.43
2023-04-26T20:09:24.705Z,4.68
2023-04-26T20:14:31.185Z,4.78
2023-04-26T20:19:35.800Z,4.60
2023-04-26T20:24:39.366Z,6.75
2023-04-26T20:29:44.405Z,5.20
2023-04-26T20:34:48.304Z,5.60
2023-04-26T20:39:51.741Z,4.18
2023-04-26T20:44:58.313Z,5.40
2023-04-26T20:50:03.091Z,6.35
2023-04-26T20:55:07.538Z,6.63
2023-04-26T21:00:13.831Z,7.70
2023-04-26T21:05:17.296Z,7.32
2023-04-26T21:10:22.157Z,6.07
2023-04-26T21:15:27.064Z,8.98
2023-04-26T21:20:30.849Z,11.48
2023-04-26T21:25:34.630Z,6.97
2023-04-26T21:30:39.160Z,5.85
2023-04-26T21:35:43.604Z,7.38
2023-04-26T21:40:50.268Z,6.38
2023-04-26T21:45:58.382Z,11.63
2023-04-26T21:51:02.712Z,8.00
2023-04-26T21:56:07.722Z,7.40
2023-04-26T22:01:13.514Z,7.35
2023-04-26T22:06:17.138Z,8.45
2023-04-26T22:11:20.474Z,7.60
2023-04-26T22:16:26.208Z,7.15
2023-04-26T22:21:30.487Z,6.88
2023-04-26T22:26:33.810Z,7.35
2023-04-26T22:31:38.933Z,9.20
2023-04-26T22:36:42.937Z,9.35
2023-04-26T22:41:46.062Z,9.40
2023-04-26T22:46:51.332Z,7.40
2023-04-26T22:52:05.846Z,10.07
2023-04-26T22:57:11.630Z,7.88
2023-04-26T23:02:16.544Z,7.32
2023-04-26T23:07:22.966Z,7.90
2023-04-26T23:12:27.776Z,10.50
2023-04-26T23:17:34.194Z,11.05
2023-04-26T23:22:38.026Z,9.07
2023-04-26T23:27:41.517Z,9.10
2023-04-26T23:32:46.957Z,11.13
2023-04-26T23:37:52.759Z,11.55
2023-04-26T23:43:01.432Z,11.48
2023-04-26T23:48:06.806Z,13.65
2023-04-26T23:53:10.781Z,11.55
2023-04-26T23:58:14.382Z,10.63
